sensor_id;sensor_type;location;lat;lon;timestamp;temperature;humidity
46720;DHT22;32452;51.382;-0.002;2023-09-19T00:01:27;14.50;92.50
46720;DHT22;32452;51.382;-0.002;2023-09-19T00:04:13;14.50;92.50
46720;DHT22;32452;51.382;-0.002;2023-09-19T00:07:00;14.50;92.60
46720;DHT22;32452;51.382;-0.002;2023-09-19T00:09:47;14.50;92.60
46720;DHT22;32452;51.382;-0.002;2023-09-19T00:12:34;14.50;92.70
46720;DHT22;32452;51.382;-0.002;2023-09-19T00:15:22;14.50;92.80
46720;DHT22;32452;51.382;-0.002;2023-09-19T00:18:08;14.50;92.90
46720;DHT22;32452;51.382;-0.002;2023-09-19T00:21:01;14.40;93.00
46720;DHT22;32452;51.382;-0.002;2023-09-19T00:23:47;14.40;93.00
46720;DHT22;32452;51.382;-0.002;2023-09-19T00:26:33;14.40;93.10
46720;DHT22;32452;51.382;-0.002;2023-09-19T00:29:20;14.40;93.10
46720;DHT22;32452;51.382;-0.002;2023-09-19T00:32:07;14.40;93.20
46720;DHT22;32452;51.382;-0.002;2023-09-19T00:34:53;14.40;93.30
46720;DHT22;32452;51.382;-0.002;2023-09-19T00:37:38;14.40;93.30
46720;DHT22;32452;51.382;-0.002;2023-09-19T00:40:25;14.40;93.30
46720;DHT22;32452;51.382;-0.002;2023-09-19T00:43:12;14.40;93.40
46720;DHT22;32452;51.382;-0.002;2023-09-19T00:45:57;14.40;93.40
46720;DHT22;32452;51.382;-0.002;2023-09-19T00:48:44;14.40;93.50
46720;DHT22;32452;51.382;-0.002;2023-09-19T00:51:29;14.40;93.50
46720;DHT22;32452;51.382;-0.002;2023-09-19T00:54:16;14.40;93.50
46720;DHT22;32452;51.382;-0.002;2023-09-19T00:57:04;14.40;93.50
46720;DHT22;32452;51.382;-0.002;2023-09-19T00:59:50;14.40;93.50
46720;DHT22;32452;51.382;-0.002;2023-09-19T01:02:38;14.40;93.50
46720;DHT22;32452;51.382;-0.002;2023-09-19T01:05:43;14.40;93.50
46720;DHT22;32452;51.382;-0.002;2023-09-19T01:08:29;14.30;93.50
46720;DHT22;32452;51.382;-0.002;2023-09-19T01:11:21;14.30;93.50
46720;DHT22;32452;51.382;-0.002;2023-09-19T01:14:31;14.30;93.50
46720;DHT22;32452;51.382;-0.002;2023-09-19T01:17:31;14.30;93.60
46720;DHT22;32452;51.382;-0.002;2023-09-19T01:20:31;14.30;93.50
46720;DHT22;32452;51.382;-0.002;2023-09-19T01:23:34;14.30;93.60
46720;DHT22;32452;51.382;-0.002;2023-09-19T01:26:56;14.20;93.60
46720;DHT22;32452;51.382;-0.002;2023-09-19T01:29:49;14.30;93.60
46720;DHT22;32452;51.382;-0.002;2023-09-19T01:32:36;14.20;93.60
46720;DHT22;32452;51.382;-0.002;2023-09-19T01:35:23;14.20;93.70
46720;DHT22;32452;51.382;-0.002;2023-09-19T01:38:09;14.20;93.70
46720;DHT22;32452;51.382;-0.002;2023-09-19T01:41:05;14.20;93.70
46720;DHT22;32452;51.382;-0.002;2023-09-19T01:43:54;14.20;93.70
46720;DHT22;32452;51.382;-0.002;2023-09-19T01:46:41;14.20;93.80
46720;DHT22;32452;51.382;-0.002;2023-09-19T01:49:39;14.20;93.80
46720;DHT22;32452;51.382;-0.002;2023-09-19T01:52:31;14.20;93.80
46720;DHT22;32452;51.382;-0.002;2023-09-19T01:55:21;14.20;93.80
46720;DHT22;32452;51.382;-0.002;2023-09-19T02:01:00;14.20;93.80
46720;DHT22;32452;51.382;-0.002;2023-09-19T02:03:47;14.10;93.80
46720;DHT22;32452;51.382;-0.002;2023-09-19T02:06:34;14.20;93.90
46720;DHT22;32452;51.382;-0.002;2023-09-19T02:09:20;14.10;93.90
46720;DHT22;32452;51.382;-0.002;2023-09-19T02:12:06;14.10;93.90
46720;DHT22;32452;51.382;-0.002;2023-09-19T02:14:51;14.10;93.90
46720;DHT22;32452;51.382;-0.002;2023-09-19T02:17:37;14.10;94.30
46720;DHT22;32452;51.382;-0.002;2023-09-19T02:20:23;14.10;94.00
46720;DHT22;32452;51.382;-0.002;2023-09-19T02:23:09;14.10;94.00
46720;DHT22;32452;51.382;-0.002;2023-09-19T02:25:55;14.10;94.30
46720;DHT22;32452;51.382;-0.002;2023-09-19T02:28:43;14.10;94.00
46720;DHT22;32452;51.382;-0.002;2023-09-19T02:31:28;14.20;94.00
46720;DHT22;32452;51.382;-0.002;2023-09-19T02:34:15;14.10;94.00
46720;DHT22;32452;51.382;-0.002;2023-09-19T02:37:03;14.10;94.00
46720;DHT22;32452;51.382;-0.002;2023-09-19T02:39:50;14.10;94.00
46720;DHT22;32452;51.382;-0.002;2023-09-19T02:42:35;14.10;94.10
46720;DHT22;32452;51.382;-0.002;2023-09-19T02:45:21;14.10;94.10
46720;DHT22;32452;51.382;-0.002;2023-09-19T02:48:08;14.10;94.10
46720;DHT22;32452;51.382;-0.002;2023-09-19T02:50:54;14.10;94.10
46720;DHT22;32452;51.382;-0.002;2023-09-19T02:53:40;14.10;94.10
46720;DHT22;32452;51.382;-0.002;2023-09-19T02:56:27;14.10;94.20
46720;DHT22;32452;51.382;-0.002;2023-09-19T02:59:13;14.10;94.20
46720;DHT22;32452;51.382;-0.002;2023-09-19T03:01:59;14.00;94.20
46720;DHT22;32452;51.382;-0.002;2023-09-19T03:04:46;14.00;94.30
46720;DHT22;32452;51.382;-0.002;2023-09-19T03:07:33;14.10;94.30
46720;DHT22;32452;51.382;-0.002;2023-09-19T03:10:19;14.00;94.40
46720;DHT22;32452;51.382;-0.002;2023-09-19T03:13:05;14.00;94.40
46720;DHT22;32452;51.382;-0.002;2023-09-19T03:15:54;14.00;94.50
46720;DHT22;32452;51.382;-0.002;2023-09-19T03:18:43;14.00;94.60
46720;DHT22;32452;51.382;-0.002;2023-09-19T03:21:30;13.90;94.60
46720;DHT22;32452;51.382;-0.002;2023-09-19T03:24:15;13.90;94.70
46720;DHT22;32452;51.382;-0.002;2023-09-19T03:27:01;13.90;94.80
46720;DHT22;32452;51.382;-0.002;2023-09-19T03:29:47;13.90;94.90
46720;DHT22;32452;51.382;-0.002;2023-09-19T03:32:32;13.80;94.90
46720;DHT22;32452;51.382;-0.002;2023-09-19T03:35:18;13.80;95.10
46720;DHT22;32452;51.382;-0.002;2023-09-19T03:38:04;13.80;95.20
46720;DHT22;32452;51.382;-0.002;2023-09-19T03:40:49;13.80;95.30
46720;DHT22;32452;51.382;-0.002;2023-09-19T03:43:35;13.80;95.40
46720;DHT22;32452;51.382;-0.002;2023-09-19T03:46:20;13.70;95.50
46720;DHT22;32452;51.382;-0.002;2023-09-19T03:49:06;13.70;95.60
46720;DHT22;32452;51.382;-0.002;2023-09-19T03:51:52;13.70;95.70
46720;DHT22;32452;51.382;-0.002;2023-09-19T03:54:38;13.70;95.80
46720;DHT22;32452;51.382;-0.002;2023-09-19T03:57:26;13.70;95.90
46720;DHT22;32452;51.382;-0.002;2023-09-19T04:00:12;13.70;96.00
46720;DHT22;32452;51.382;-0.002;2023-09-19T04:02:59;13.70;96.10
46720;DHT22;32452;51.382;-0.002;2023-09-19T04:05:47;13.80;96.20
46720;DHT22;32452;51.382;-0.002;2023-09-19T04:08:33;13.70;96.30
46720;DHT22;32452;51.382;-0.002;2023-09-19T04:11:19;13.80;96.50
46720;DHT22;32452;51.382;-0.002;2023-09-19T04:14:04;13.80;96.60
46720;DHT22;32452;51.382;-0.002;2023-09-19T04:16:50;13.70;96.70
46720;DHT22;32452;51.382;-0.002;2023-09-19T04:19:36;13.70;96.70
46720;DHT22;32452;51.382;-0.002;2023-09-19T04:22:22;13.70;96.80
46720;DHT22;32452;51.382;-0.002;2023-09-19T04:25:08;13.70;96.90
46720;DHT22;32452;51.382;-0.002;2023-09-19T04:27:53;13.80;97.10
46720;DHT22;32452;51.382;-0.002;2023-09-19T04:30:39;13.70;97.20
46720;DHT22;32452;51.382;-0.002;2023-09-19T04:33:27;13.80;97.30
46720;DHT22;32452;51.382;-0.002;2023-09-19T04:36:13;13.80;97.40
46720;DHT22;32452;51.382;-0.002;2023-09-19T04:39:19;13.80;97.50
46720;DHT22;32452;51.382;-0.002;2023-09-19T04:42:06;13.80;97.60
46720;DHT22;32452;51.382;-0.002;2023-09-19T04:44:52;13.80;97.60
46720;DHT22;32452;51.382;-0.002;2023-09-19T04:47:39;13.80;97.80
46720;DHT22;32452;51.382;-0.002;2023-09-19T04:50:25;13.80;97.90
46720;DHT22;32452;51.382;-0.002;2023-09-19T04:53:11;13.80;97.90
46720;DHT22;32452;51.382;-0.002;2023-09-19T04:55:58;13.80;98.20
46720;DHT22;32452;51.382;-0.002;2023-09-19T04:58:43;13.80;98.10
46720;DHT22;32452;51.382;-0.002;2023-09-19T05:01:29;13.80;98.20
46720;DHT22;32452;51.382;-0.002;2023-09-19T05:04:15;13.90;98.30
46720;DHT22;32452;51.382;-0.002;2023-09-19T05:07:01;13.90;98.40
46720;DHT22;32452;51.382;-0.002;2023-09-19T05:09:48;13.90;98.40
46720;DHT22;32452;51.382;-0.002;2023-09-19T05:12:34;14.00;98.50
46720;DHT22;32452;51.382;-0.002;2023-09-19T05:15:20;14.00;98.60
46720;DHT22;32452;51.382;-0.002;2023-09-19T05:18:06;14.00;98.60
46720;DHT22;32452;51.382;-0.002;2023-09-19T05:20:52;14.10;98.70
46720;DHT22;32452;51.382;-0.002;2023-09-19T05:23:38;14.10;98.80
46720;DHT22;32452;51.382;-0.002;2023-09-19T05:26:24;14.20;99.00
46720;DHT22;32452;51.382;-0.002;2023-09-19T05:29:12;14.20;99.00
46720;DHT22;32452;51.382;-0.002;2023-09-19T05:31:57;14.20;99.10
46720;DHT22;32452;51.382;-0.002;2023-09-19T05:34:43;14.30;99.30
46720;DHT22;32452;51.382;-0.002;2023-09-19T05:37:29;14.30;99.40
46720;DHT22;32452;51.382;-0.002;2023-09-19T05:40:15;14.40;99.50
46720;DHT22;32452;51.382;-0.002;2023-09-19T05:43:01;14.40;99.60
46720;DHT22;32452;51.382;-0.002;2023-09-19T05:45:51;14.50;99.80
46720;DHT22;32452;51.382;-0.002;2023-09-19T05:48:37;14.50;99.90
46720;DHT22;32452;51.382;-0.002;2023-09-19T05:51:24;14.60;99.90
46720;DHT22;32452;51.382;-0.002;2023-09-19T05:54:14;14.60;99.90
46720;DHT22;32452;51.382;-0.002;2023-09-19T05:57:03;14.60;99.90
46720;DHT22;32452;51.382;-0.002;2023-09-19T05:59:49;14.60;99.90
46720;DHT22;32452;51.382;-0.002;2023-09-19T06:02:36;14.70;99.90
46720;DHT22;32452;51.382;-0.002;2023-09-19T06:05:27;14.70;99.90
46720;DHT22;32452;51.382;-0.002;2023-09-19T06:08:13;14.80;99.90
46720;DHT22;32452;51.382;-0.002;2023-09-19T06:10:59;14.80;99.90
46720;DHT22;32452;51.382;-0.002;2023-09-19T06:13:45;14.80;99.90
46720;DHT22;32452;51.382;-0.002;2023-09-19T06:16:33;14.90;99.90
46720;DHT22;32452;51.382;-0.002;2023-09-19T06:19:18;14.90;99.90
46720;DHT22;32452;51.382;-0.002;2023-09-19T06:22:04;15.00;99.90
46720;DHT22;32452;51.382;-0.002;2023-09-19T06:24:50;15.00;99.90
46720;DHT22;32452;51.382;-0.002;2023-09-19T06:27:35;15.10;99.90
46720;DHT22;32452;51.382;-0.002;2023-09-19T06:30:23;15.10;99.90
46720;DHT22;32452;51.382;-0.002;2023-09-19T06:33:11;15.20;99.90
46720;DHT22;32452;51.382;-0.002;2023-09-19T06:36:03;15.20;99.90
46720;DHT22;32452;51.382;-0.002;2023-09-19T06:38:49;15.20;99.90
46720;DHT22;32452;51.382;-0.002;2023-09-19T06:41:37;15.20;99.90
46720;DHT22;32452;51.382;-0.002;2023-09-19T06:44:24;15.20;99.90
46720;DHT22;32452;51.382;-0.002;2023-09-19T06:47:11;15.20;99.90
46720;DHT22;32452;51.382;-0.002;2023-09-19T06:49:57;15.20;99.90
46720;DHT22;32452;51.382;-0.002;2023-09-19T06:52:43;15.20;99.90
46720;DHT22;32452;51.382;-0.002;2023-09-19T06:55:28;15.20;99.90
46720;DHT22;32452;51.382;-0.002;2023-09-19T06:58:18;15.30;99.90
46720;DHT22;32452;51.382;-0.002;2023-09-19T07:01:04;15.30;99.90
46720;DHT22;32452;51.382;-0.002;2023-09-19T07:03:50;15.30;99.90
46720;DHT22;32452;51.382;-0.002;2023-09-19T07:06:36;15.40;99.90
46720;DHT22;32452;51.382;-0.002;2023-09-19T07:09:22;15.40;99.90
46720;DHT22;32452;51.382;-0.002;2023-09-19T07:12:08;15.50;99.90
46720;DHT22;32452;51.382;-0.002;2023-09-19T07:14:53;15.60;99.90
46720;DHT22;32452;51.382;-0.002;2023-09-19T07:17:40;15.60;99.90
46720;DHT22;32452;51.382;-0.002;2023-09-19T07:20:25;15.70;99.90
46720;DHT22;32452;51.382;-0.002;2023-09-19T07:23:12;15.70;99.90
46720;DHT22;32452;51.382;-0.002;2023-09-19T07:26:01;15.70;99.90
46720;DHT22;32452;51.382;-0.002;2023-09-19T07:28:50;15.80;99.90
46720;DHT22;32452;51.382;-0.002;2023-09-19T07:31:37;15.90;99.90
46720;DHT22;32452;51.382;-0.002;2023-09-19T07:34:27;15.90;99.90
46720;DHT22;32452;51.382;-0.002;2023-09-19T07:37:13;16.00;99.90
46720;DHT22;32452;51.382;-0.002;2023-09-19T07:40:06;16.00;99.90
46720;DHT22;32452;51.382;-0.002;2023-09-19T07:42:58;16.10;99.90
46720;DHT22;32452;51.382;-0.002;2023-09-19T07:45:46;16.10;99.90
46720;DHT22;32452;51.382;-0.002;2023-09-19T07:48:34;16.10;99.90
46720;DHT22;32452;51.382;-0.002;2023-09-19T07:51:21;16.10;99.90
46720;DHT22;32452;51.382;-0.002;2023-09-19T07:54:07;16.10;99.90
46720;DHT22;32452;51.382;-0.002;2023-09-19T07:56:54;16.20;99.90
46720;DHT22;32452;51.382;-0.002;2023-09-19T07:59:41;16.20;99.90
46720;DHT22;32452;51.382;-0.002;2023-09-19T08:02:27;16.30;99.90
46720;DHT22;32452;51.382;-0.002;2023-09-19T08:05:15;16.30;99.90
46720;DHT22;32452;51.382;-0.002;2023-09-19T08:08:01;16.30;99.90
46720;DHT22;32452;51.382;-0.002;2023-09-19T08:10:55;16.30;99.90
46720;DHT22;32452;51.382;-0.002;2023-09-19T08:13:42;16.30;99.90
46720;DHT22;32452;51.382;-0.002;2023-09-19T08:16:33;16.30;99.90
46720;DHT22;32452;51.382;-0.002;2023-09-19T08:19:22;16.30;99.90
46720;DHT22;32452;51.382;-0.002;2023-09-19T08:22:09;16.30;99.90
46720;DHT22;32452;51.382;-0.002;2023-09-19T08:24:55;16.30;99.90
46720;DHT22;32452;51.382;-0.002;2023-09-19T08:27:56;16.30;99.90
46720;DHT22;32452;51.382;-0.002;2023-09-19T08:30:46;16.20;99.90
46720;DHT22;32452;51.382;-0.002;2023-09-19T08:33:32;16.20;99.90
46720;DHT22;32452;51.382;-0.002;2023-09-19T08:36:18;16.20;99.90
46720;DHT22;32452;51.382;-0.002;2023-09-19T08:39:04;16.30;99.90
46720;DHT22;32452;51.382;-0.002;2023-09-19T08:41:59;16.30;99.90
46720;DHT22;32452;51.382;-0.002;2023-09-19T08:44:52;16.30;99.90
46720;DHT22;32452;51.382;-0.002;2023-09-19T08:48:24;16.30;99.90
46720;DHT22;32452;51.382;-0.002;2023-09-19T08:51:30;16.30;99.90
46720;DHT22;32452;51.382;-0.002;2023-09-19T08:54:25;16.40;99.90
46720;DHT22;32452;51.382;-0.002;2023-09-19T08:57:16;16.90;99.90
46720;DHT22;32452;51.382;-0.002;2023-09-19T09:00:08;17.30;99.90
46720;DHT22;32452;51.382;-0.002;2023-09-19T09:02:58;17.60;99.90
46720;DHT22;32452;51.382;-0.002;2023-09-19T09:05:46;17.70;99.90
46720;DHT22;32452;51.382;-0.002;2023-09-19T09:08:33;17.70;99.90
46720;DHT22;32452;51.382;-0.002;2023-09-19T09:11:20;17.60;99.90
46720;DHT22;32452;51.382;-0.002;2023-09-19T09:14:06;17.60;99.90
46720;DHT22;32452;51.382;-0.002;2023-09-19T09:16:53;17.60;99.90
46720;DHT22;32452;51.382;-0.002;2023-09-19T09:19:46;17.50;99.90
46720;DHT22;32452;51.382;-0.002;2023-09-19T09:22:56;17.50;99.90
46720;DHT22;32452;51.382;-0.002;2023-09-19T09:25:53;17.50;99.90
46720;DHT22;32452;51.382;-0.002;2023-09-19T09:28:46;17.50;99.90
46720;DHT22;32452;51.382;-0.002;2023-09-19T09:31:34;17.50;99.90
46720;DHT22;32452;51.382;-0.002;2023-09-19T09:34:20;17.60;99.90
46720;DHT22;32452;51.382;-0.002;2023-09-19T09:37:06;17.60;99.90
46720;DHT22;32452;51.382;-0.002;2023-09-19T09:40:04;17.70;99.90
46720;DHT22;32452;51.382;-0.002;2023-09-19T09:43:36;17.80;99.90
46720;DHT22;32452;51.382;-0.002;2023-09-19T09:46:24;17.80;99.90
46720;DHT22;32452;51.382;-0.002;2023-09-19T09:49:10;17.90;99.70
46720;DHT22;32452;51.382;-0.002;2023-09-19T09:52:12;18.00;99.40
46720;DHT22;32452;51.382;-0.002;2023-09-19T09:55:07;18.10;99.30
46720;DHT22;32452;51.382;-0.002;2023-09-19T09:58:16;18.10;99.00
46720;DHT22;32452;51.382;-0.002;2023-09-19T10:01:04;18.20;98.80
46720;DHT22;32452;51.382;-0.002;2023-09-19T10:04:01;18.20;98.70
46720;DHT22;32452;51.382;-0.002;2023-09-19T10:06:46;18.10;98.60
46720;DHT22;32452;51.382;-0.002;2023-09-19T10:09:47;18.10;98.60
46720;DHT22;32452;51.382;-0.002;2023-09-19T10:12:33;18.20;98.70
46720;DHT22;32452;51.382;-0.002;2023-09-19T10:15:24;18.30;98.70
46720;DHT22;32452;51.382;-0.002;2023-09-19T10:18:12;18.50;98.00
46720;DHT22;32452;51.382;-0.002;2023-09-19T10:21:06;18.50;97.50
46720;DHT22;32452;51.382;-0.002;2023-09-19T10:23:54;18.40;97.30
46720;DHT22;32452;51.382;-0.002;2023-09-19T10:26:42;18.40;97.30
46720;DHT22;32452;51.382;-0.002;2023-09-19T10:29:29;18.30;97.30
46720;DHT22;32452;51.382;-0.002;2023-09-19T10:32:18;18.20;97.30
46720;DHT22;32452;51.382;-0.002;2023-09-19T10:35:05;18.20;97.50
46720;DHT22;32452;51.382;-0.002;2023-09-19T10:37:54;18.10;97.60
46720;DHT22;32452;51.382;-0.002;2023-09-19T10:40:42;18.10;97.80
46720;DHT22;32452;51.382;-0.002;2023-09-19T10:43:30;18.20;97.90
46720;DHT22;32452;51.382;-0.002;2023-09-19T10:46:21;18.30;97.70
46720;DHT22;32452;51.382;-0.002;2023-09-19T10:49:07;18.40;97.60
46720;DHT22;32452;51.382;-0.002;2023-09-19T10:52:00;18.50;97.50
46720;DHT22;32452;51.382;-0.002;2023-09-19T10:54:48;18.70;97.70
46720;DHT22;32452;51.382;-0.002;2023-09-19T10:57:37;19.00;97.20
46720;DHT22;32452;51.382;-0.002;2023-09-19T11:00:26;19.30;96.70
46720;DHT22;32452;51.382;-0.002;2023-09-19T11:03:22;19.40;96.50
46720;DHT22;32452;51.382;-0.002;2023-09-19T11:06:17;19.40;96.30
46720;DHT22;32452;51.382;-0.002;2023-09-19T11:09:04;19.40;96.00
46720;DHT22;32452;51.382;-0.002;2023-09-19T11:12:06;19.40;95.70
46720;DHT22;32452;51.382;-0.002;2023-09-19T11:14:52;19.40;95.90
46720;DHT22;32452;51.382;-0.002;2023-09-19T11:17:39;19.40;95.80
46720;DHT22;32452;51.382;-0.002;2023-09-19T11:20:30;19.40;95.80
46720;DHT22;32452;51.382;-0.002;2023-09-19T11:23:28;19.30;95.70
46720;DHT22;32452;51.382;-0.002;2023-09-19T11:26:45;19.10;95.90
46720;DHT22;32452;51.382;-0.002;2023-09-19T11:29:34;19.00;96.20
46720;DHT22;32452;51.382;-0.002;2023-09-19T11:36:12;18.80;96.70
46720;DHT22;32452;51.382;-0.002;2023-09-19T11:39:01;18.70;97.00
46720;DHT22;32452;51.382;-0.002;2023-09-19T11:41:53;18.70;97.30
46720;DHT22;32452;51.382;-0.002;2023-09-19T11:44:42;18.80;97.40
46720;DHT22;32452;51.382;-0.002;2023-09-19T11:47:28;18.90;97.40
46720;DHT22;32452;51.382;-0.002;2023-09-19T11:50:18;18.90;97.40
46720;DHT22;32452;51.382;-0.002;2023-09-19T11:53:06;19.00;97.40
46720;DHT22;32452;51.382;-0.002;2023-09-19T11:55:52;19.00;97.30
46720;DHT22;32452;51.382;-0.002;2023-09-19T11:58:41;19.00;97.30
46720;DHT22;32452;51.382;-0.002;2023-09-19T12:01:32;19.00;97.50
46720;DHT22;32452;51.382;-0.002;2023-09-19T12:04:21;19.00;97.70
46720;DHT22;32452;51.382;-0.002;2023-09-19T12:07:17;18.90;97.80
46720;DHT22;32452;51.382;-0.002;2023-09-19T12:10:05;18.90;97.90
46720;DHT22;32452;51.382;-0.002;2023-09-19T12:12:52;18.80;97.90
46720;DHT22;32452;51.382;-0.002;2023-09-19T12:15:39;18.80;98.00
46720;DHT22;32452;51.382;-0.002;2023-09-19T12:18:31;18.70;98.00
46720;DHT22;32452;51.382;-0.002;2023-09-19T12:21:29;18.70;98.20
46720;DHT22;32452;51.382;-0.002;2023-09-19T12:24:17;18.70;98.30
46720;DHT22;32452;51.382;-0.002;2023-09-19T12:27:07;18.60;98.50
46720;DHT22;32452;51.382;-0.002;2023-09-19T12:29:53;18.60;98.70
46720;DHT22;32452;51.382;-0.002;2023-09-19T12:32:51;18.60;98.90
46720;DHT22;32452;51.382;-0.002;2023-09-19T12:35:37;18.60;99.00
46720;DHT22;32452;51.382;-0.002;2023-09-19T12:38:28;18.60;99.10
46720;DHT22;32452;51.382;-0.002;2023-09-19T12:41:13;18.50;99.30
46720;DHT22;32452;51.382;-0.002;2023-09-19T12:43:59;18.50;99.50
46720;DHT22;32452;51.382;-0.002;2023-09-19T12:46:45;18.50;99.70
46720;DHT22;32452;51.382;-0.002;2023-09-19T12:49:31;18.40;99.80
46720;DHT22;32452;51.382;-0.002;2023-09-19T12:52:17;18.40;99.90
46720;DHT22;32452;51.382;-0.002;2023-09-19T12:55:05;18.40;99.90
46720;DHT22;32452;51.382;-0.002;2023-09-19T12:58:01;18.40;99.90
46720;DHT22;32452;51.382;-0.002;2023-09-19T13:00:48;18.30;99.90
46720;DHT22;32452;51.382;-0.002;2023-09-19T13:03:36;18.40;99.90
46720;DHT22;32452;51.382;-0.002;2023-09-19T13:06:37;18.40;99.90
46720;DHT22;32452;51.382;-0.002;2023-09-19T13:09:24;18.50;99.90
46720;DHT22;32452;51.382;-0.002;2023-09-19T13:12:36;18.50;99.90
46720;DHT22;32452;51.382;-0.002;2023-09-19T13:15:23;18.60;99.90
46720;DHT22;32452;51.382;-0.002;2023-09-19T13:18:11;18.60;99.90
46720;DHT22;32452;51.382;-0.002;2023-09-19T13:21:06;18.60;99.90
46720;DHT22;32452;51.382;-0.002;2023-09-19T13:24:17;18.60;99.90
46720;DHT22;32452;51.382;-0.002;2023-09-19T13:27:02;18.60;99.90
46720;DHT22;32452;51.382;-0.002;2023-09-19T13:29:49;18.50;99.90
46720;DHT22;32452;51.382;-0.002;2023-09-19T13:32:34;18.40;99.90
46720;DHT22;32452;51.382;-0.002;2023-09-19T13:35:20;18.40;99.90
46720;DHT22;32452;51.382;-0.002;2023-09-19T13:38:06;18.30;99.90
46720;DHT22;32452;51.382;-0.002;2023-09-19T13:40:57;18.30;99.90
46720;DHT22;32452;51.382;-0.002;2023-09-19T13:43:46;18.30;99.90
46720;DHT22;32452;51.382;-0.002;2023-09-19T13:46:34;18.30;99.90
46720;DHT22;32452;51.382;-0.002;2023-09-19T13:49:20;18.30;99.90
46720;DHT22;32452;51.382;-0.002;2023-09-19T13:52:09;18.20;99.90
46720;DHT22;32452;51.382;-0.002;2023-09-19T13:54:54;18.20;99.90
46720;DHT22;32452;51.382;-0.002;2023-09-19T13:57:42;18.20;99.90
46720;DHT22;32452;51.382;-0.002;2023-09-19T14:00:28;18.20;99.90
46720;DHT22;32452;51.382;-0.002;2023-09-19T14:03:14;18.20;99.90
46720;DHT22;32452;51.382;-0.002;2023-09-19T14:06:02;18.20;99.90
46720;DHT22;32452;51.382;-0.002;2023-09-19T14:08:48;18.20;99.90
46720;DHT22;32452;51.382;-0.002;2023-09-19T14:11:35;18.30;99.90
46720;DHT22;32452;51.382;-0.002;2023-09-19T14:14:21;18.30;99.90
46720;DHT22;32452;51.382;-0.002;2023-09-19T14:17:06;18.40;99.90
46720;DHT22;32452;51.382;-0.002;2023-09-19T14:19:53;18.40;99.90
46720;DHT22;32452;51.382;-0.002;2023-09-19T14:22:38;18.50;99.90
46720;DHT22;32452;51.382;-0.002;2023-09-19T14:25:24;18.50;99.90
46720;DHT22;32452;51.382;-0.002;2023-09-19T14:28:10;18.50;99.90
46720;DHT22;32452;51.382;-0.002;2023-09-19T14:30:56;18.50;99.90
46720;DHT22;32452;51.382;-0.002;2023-09-19T14:33:42;18.50;99.90
46720;DHT22;32452;51.382;-0.002;2023-09-19T14:36:27;18.50;99.90
46720;DHT22;32452;51.382;-0.002;2023-09-19T14:39:13;18.50;99.90
46720;DHT22;32452;51.382;-0.002;2023-09-19T14:41:59;18.50;99.90
46720;DHT22;32452;51.382;-0.002;2023-09-19T14:44:45;18.50;99.90
46720;DHT22;32452;51.382;-0.002;2023-09-19T14:47:33;18.50;99.90
46720;DHT22;32452;51.382;-0.002;2023-09-19T14:50:19;18.50;99.90
46720;DHT22;32452;51.382;-0.002;2023-09-19T14:53:05;18.50;99.90
46720;DHT22;32452;51.382;-0.002;2023-09-19T14:55:55;18.50;99.90
46720;DHT22;32452;51.382;-0.002;2023-09-19T14:58:41;18.60;99.90
46720;DHT22;32452;51.382;-0.002;2023-09-19T15:01:28;18.50;99.90
46720;DHT22;32452;51.382;-0.002;2023-09-19T15:04:13;18.50;99.90
46720;DHT22;32452;51.382;-0.002;2023-09-19T15:06:59;18.50;99.90
46720;DHT22;32452;51.382;-0.002;2023-09-19T15:09:45;18.50;99.90
46720;DHT22;32452;51.382;-0.002;2023-09-19T15:12:31;18.50;99.90
46720;DHT22;32452;51.382;-0.002;2023-09-19T15:15:18;18.50;99.90
46720;DHT22;32452;51.382;-0.002;2023-09-19T15:18:04;18.50;99.90
46720;DHT22;32452;51.382;-0.002;2023-09-19T15:20:49;18.60;99.90
46720;DHT22;32452;51.382;-0.002;2023-09-19T15:23:37;18.60;99.90
46720;DHT22;32452;51.382;-0.002;2023-09-19T15:26:23;18.60;99.90
46720;DHT22;32452;51.382;-0.002;2023-09-19T15:29:10;18.60;99.90
46720;DHT22;32452;51.382;-0.002;2023-09-19T15:31:56;18.60;99.90
46720;DHT22;32452;51.382;-0.002;2023-09-19T15:34:47;18.60;99.90
46720;DHT22;32452;51.382;-0.002;2023-09-19T15:37:33;18.50;99.90
46720;DHT22;32452;51.382;-0.002;2023-09-19T15:40:19;18.50;99.90
46720;DHT22;32452;51.382;-0.002;2023-09-19T15:43:05;18.50;99.90
46720;DHT22;32452;51.382;-0.002;2023-09-19T15:45:51;18.50;99.90
46720;DHT22;32452;51.382;-0.002;2023-09-19T15:48:36;18.50;99.90
46720;DHT22;32452;51.382;-0.002;2023-09-19T15:51:23;18.50;99.90
46720;DHT22;32452;51.382;-0.002;2023-09-19T15:54:13;18.50;99.90
46720;DHT22;32452;51.382;-0.002;2023-09-19T15:56:59;18.40;99.90
46720;DHT22;32452;51.382;-0.002;2023-09-19T15:59:45;18.40;99.90
46720;DHT22;32452;51.382;-0.002;2023-09-19T16:02:32;18.40;99.90
46720;DHT22;32452;51.382;-0.002;2023-09-19T16:05:18;18.40;99.90
46720;DHT22;32452;51.382;-0.002;2023-09-19T16:08:04;18.40;99.90
46720;DHT22;32452;51.382;-0.002;2023-09-19T16:10:50;18.40;99.90
46720;DHT22;32452;51.382;-0.002;2023-09-19T16:13:38;18.40;99.90
46720;DHT22;32452;51.382;-0.002;2023-09-19T16:16:26;18.30;99.90
46720;DHT22;32452;51.382;-0.002;2023-09-19T16:19:15;18.30;99.90
46720;DHT22;32452;51.382;-0.002;2023-09-19T16:22:02;18.40;99.90
46720;DHT22;32452;51.382;-0.002;2023-09-19T16:24:48;18.40;99.90
46720;DHT22;32452;51.382;-0.002;2023-09-19T16:27:33;18.40;99.90
46720;DHT22;32452;51.382;-0.002;2023-09-19T16:30:19;18.40;99.90
46720;DHT22;32452;51.382;-0.002;2023-09-19T16:33:04;18.40;99.90
46720;DHT22;32452;51.382;-0.002;2023-09-19T16:35:51;18.40;99.90
46720;DHT22;32452;51.382;-0.002;2023-09-19T16:38:38;18.40;99.90
46720;DHT22;32452;51.382;-0.002;2023-09-19T16:41:24;18.40;99.90
46720;DHT22;32452;51.382;-0.002;2023-09-19T16:44:10;18.40;99.90
46720;DHT22;32452;51.382;-0.002;2023-09-19T16:46:59;18.40;99.90
46720;DHT22;32452;51.382;-0.002;2023-09-19T16:49:44;18.40;99.90
46720;DHT22;32452;51.382;-0.002;2023-09-19T16:52:30;18.40;99.90
46720;DHT22;32452;51.382;-0.002;2023-09-19T16:55:16;18.40;99.90
46720;DHT22;32452;51.382;-0.002;2023-09-19T16:58:01;18.40;99.90
46720;DHT22;32452;51.382;-0.002;2023-09-19T17:00:47;18.40;99.90
46720;DHT22;32452;51.382;-0.002;2023-09-19T17:03:33;18.40;99.90
46720;DHT22;32452;51.382;-0.002;2023-09-19T17:06:20;18.40;99.90
46720;DHT22;32452;51.382;-0.002;2023-09-19T17:09:09;18.40;99.90
46720;DHT22;32452;51.382;-0.002;2023-09-19T17:11:55;18.40;99.90
46720;DHT22;32452;51.382;-0.002;2023-09-19T17:14:40;18.40;99.90
46720;DHT22;32452;51.382;-0.002;2023-09-19T17:17:27;18.30;99.90
46720;DHT22;32452;51.382;-0.002;2023-09-19T17:20:13;18.30;99.90
46720;DHT22;32452;51.382;-0.002;2023-09-19T17:22:59;18.30;99.90
46720;DHT22;32452;51.382;-0.002;2023-09-19T17:25:44;18.30;99.90
46720;DHT22;32452;51.382;-0.002;2023-09-19T17:28:30;18.20;99.90
46720;DHT22;32452;51.382;-0.002;2023-09-19T17:34:04;18.10;99.90
46720;DHT22;32452;51.382;-0.002;2023-09-19T17:36:49;18.10;99.90